createdAt,value
2023-03-12T00:01:51.663Z,4.10
2023-03-12T00:04:36.637Z,4.00
2023-03-12T00:07:21.931Z,3.50
2023-03-12T00:10:07.693Z,3.83
2023-03-12T00:12:53.258Z,3.83
2023-03-12T00:15:39.394Z,4.67
2023-03-12T00:18:24.930Z,4.67
2023-03-12T00:21:10.671Z,3.80
2023-03-12T00:23:56.019Z,4.00
2023-03-12T00:26:41.228Z,3.40
2023-03-12T00:29:26.538Z,3.90
2023-03-12T00:32:12.295Z,4.03
2023-03-12T00:34:57.335Z,3.90
2023-03-12T00:37:42.563Z,4.07
2023-03-12T00:40:28.023Z,3.97
2023-03-12T00:43:13.235Z,3.77
2023-03-12T00:45:58.420Z,4.23
2023-03-12T00:48:44.410Z,4.13
2023-03-12T00:51:29.821Z,3.60
2023-03-12T00:54:14.876Z,3.53
2023-03-12T00:57:00.274Z,3.80
2023-03-12T00:59:45.931Z,3.80
2023-03-12T01:02:31.171Z,3.87
2023-03-12T01:05:17.044Z,3.63
2023-03-12T01:08:02.111Z,3.90
2023-03-12T01:10:47.026Z,3.63
2023-03-12T01:13:32.044Z,3.97
2023-03-12T01:16:17.850Z,3.70
2023-03-12T01:19:04.092Z,4.10
2023-03-12T01:21:49.310Z,3.57
2023-03-12T01:24:34.459Z,3.20
2023-03-12T01:27:20.412Z,3.43
2023-03-12T01:30:06.573Z,3.60
2023-03-12T01:32:52.412Z,3.53
2023-03-12T01:35:39.356Z,3.47
2023-03-12T01:38:24.662Z,3.93
2023-03-12T01:41:10.032Z,3.13
2023-03-12T01:43:55.658Z,3.30
2023-03-12T01:46:43.240Z,3.43
2023-03-12T01:49:41.501Z,3.50
2023-03-12T01:52:34.610Z,3.60
2023-03-12T01:55:20.029Z,3.63
2023-03-12T01:58:07.155Z,4.13
2023-03-12T02:00:52.352Z,3.70
2023-03-12T02:03:38.079Z,3.33
2023-03-12T02:06:40.840Z,3.10
2023-03-12T02:09:26.448Z,3.43
2023-03-12T02:12:12.410Z,3.47
2023-03-12T02:14:58.209Z,3.47
2023-03-12T02:17:43.433Z,3.10
2023-03-12T02:20:39.408Z,3.37
2023-03-12T02:23:34.991Z,3.67
2023-03-12T02:26:22.495Z,3.30
2023-03-12T02:29:10.514Z,3.77
2023-03-12T02:31:58.600Z,3.13
2023-03-12T02:34:44.198Z,3.00
2023-03-12T02:37:29.377Z,3.10
2023-03-12T02:40:29.054Z,2.80
2023-03-12T02:43:14.908Z,3.17
2023-03-12T02:46:00.945Z,2.90
2023-03-12T02:48:46.920Z,3.00
2023-03-12T02:51:32.038Z,3.30
2023-03-12T02:54:20.153Z,3.13
2023-03-12T02:57:05.424Z,3.00
2023-03-12T02:59:51.661Z,2.93
2023-03-12T03:02:36.997Z,2.80
2023-03-12T03:05:22.137Z,3.10
2023-03-12T03:08:07.902Z,3.10
2023-03-12T03:10:53.388Z,2.97
2023-03-12T03:13:38.875Z,3.00
2023-03-12T03:16:24.700Z,2.80
2023-03-12T03:19:11.298Z,3.13
2023-03-12T03:21:56.630Z,2.97
2023-03-12T03:24:42.166Z,3.17
2023-03-12T03:27:27.240Z,3.13
2023-03-12T03:30:12.658Z,2.77
2023-03-12T03:33:02.067Z,3.00
2023-03-12T03:35:48.397Z,3.30
2023-03-12T03:38:37.402Z,2.60
2023-03-12T03:41:23.542Z,2.53
2023-03-12T03:44:09.436Z,3.10
2023-03-12T03:46:56.664Z,3.20
2023-03-12T03:49:42.390Z,2.73
2023-03-12T03:52:29.057Z,2.93
2023-03-12T03:55:15.051Z,2.67
2023-03-12T03:58:00.723Z,2.90
2023-03-12T04:00:46.171Z,2.73
2023-03-12T04:03:31.244Z,2.57
2023-03-12T04:06:16.460Z,2.93
2023-03-12T04:09:02.067Z,2.70
2023-03-12T04:11:48.633Z,2.90
2023-03-12T04:14:33.776Z,2.80
2023-03-12T04:17:19.344Z,2.43
2023-03-12T04:20:10.265Z,2.60
2023-03-12T04:22:58.521Z,2.57
2023-03-12T04:25:44.261Z,2.37
2023-03-12T04:28:30.112Z,2.80
2023-03-12T04:31:15.981Z,2.70
2023-03-12T04:34:09.245Z,2.47
2023-03-12T04:36:55.072Z,2.47
2023-03-12T04:39:41.738Z,2.07
2023-03-12T04:42:27.159Z,2.50
2023-03-12T04:45:12.927Z,2.90
2023-03-12T04:48:04.289Z,3.20
2023-03-12T04:50:49.860Z,3.00
2023-03-12T04:53:35.445Z,2.47
2023-03-12T04:56:21.910Z,2.50
2023-03-12T04:59:07.412Z,2.50
2023-03-12T05:01:52.676Z,2.23
2023-03-12T05:04:43.030Z,2.40
2023-03-12T05:07:28.416Z,2.77
2023-03-12T05:10:13.912Z,2.60
2023-03-12T05:12:59.794Z,2.37
2023-03-12T05:15:45.553Z,2.27
2023-03-12T05:18:31.141Z,2.40
2023-03-12T05:21:19.208Z,2.60
2023-03-12T05:24:05.266Z,2.23
2023-03-12T05:26:50.505Z,2.60
2023-03-12T05:29:39.644Z,2.30
2023-03-12T05:32:25.484Z,2.20
2023-03-12T05:35:11.269Z,2.63
2023-03-12T05:37:57.906Z,2.13
2023-03-12T05:40:43.345Z,2.17
2023-03-12T05:43:28.911Z,2.70
2023-03-12T05:46:14.654Z,2.30
2023-03-12T05:49:00.230Z,2.23
2023-03-12T05:51:48.247Z,2.47
2023-03-12T05:54:33.827Z,2.30
2023-03-12T05:57:21.608Z,2.10
2023-03-12T06:00:08.070Z,2.30
2023-03-12T06:02:58.374Z,2.60
2023-03-12T06:05:44.869Z,2.20
2023-03-12T06:08:30.387Z,2.30
2023-03-12T06:11:16.119Z,2.20
2023-03-12T06:14:01.683Z,2.10
2023-03-12T06:16:47.001Z,2.10
2023-03-12T06:19:32.474Z,2.30
2023-03-12T06:22:17.843Z,2.00
2023-03-12T06:25:04.389Z,2.10
2023-03-12T06:27:49.891Z,2.10
2023-03-12T06:30:34.869Z,2.30
2023-03-12T06:33:20.237Z,2.20
2023-03-12T06:36:08.031Z,2.37
2023-03-12T06:38:56.602Z,2.00
2023-03-12T06:41:42.174Z,1.87
2023-03-12T06:44:27.728Z,2.07
2023-03-12T06:47:12.977Z,2.10
2023-03-12T06:49:58.244Z,2.33
2023-03-12T06:52:43.319Z,2.10
2023-03-12T06:55:28.458Z,2.10
2023-03-12T06:58:13.651Z,2.03
2023-03-12T07:00:59.223Z,2.10
2023-03-12T07:03:44.335Z,1.93
2023-03-12T07:06:29.569Z,2.00
2023-03-12T07:09:14.574Z,1.80
2023-03-12T07:11:59.510Z,2.07
2023-03-12T07:14:44.512Z,2.00
2023-03-12T07:17:30.056Z,2.30
2023-03-12T07:20:15.092Z,1.93
2023-03-12T07:23:00.428Z,1.80
2023-03-12T07:25:45.692Z,2.10
2023-03-12T07:28:30.920Z,1.70
2023-03-12T07:31:15.981Z,2.00
2023-03-12T07:34:03.060Z,2.03
2023-03-12T07:36:48.401Z,1.60
2023-03-12T07:39:33.896Z,1.70
2023-03-12T07:42:19.087Z,1.97
2023-03-12T07:45:07.966Z,1.70
2023-03-12T07:47:53.356Z,1.50
2023-03-12T07:50:38.599Z,1.77
2023-03-12T07:53:23.538Z,1.90
2023-03-12T07:56:09.089Z,1.93
2023-03-12T07:58:55.438Z,1.60
2023-03-12T08:01:40.406Z,1.67
2023-03-12T08:04:26.108Z,1.60
2023-03-12T08:07:11.724Z,1.90
2023-03-12T08:09:57.268Z,1.90
2023-03-12T08:12:42.413Z,1.80
2023-03-12T08:15:27.244Z,1.40
2023-03-12T08:18:12.394Z,1.70
2023-03-12T08:20:57.788Z,1.80
2023-03-12T08:23:43.336Z,1.90
2023-03-12T08:26:28.652Z,1.73
2023-03-12T08:29:14.419Z,1.60
2023-03-12T08:32:04.884Z,2.07
2023-03-12T08:34:51.154Z,1.80
2023-03-12T08:37:36.550Z,1.40
2023-03-12T08:40:22.078Z,1.83
2023-03-12T08:43:10.188Z,1.80
2023-03-12T08:46:00.504Z,1.97
2023-03-12T08:48:45.554Z,1.90
2023-03-12T08:51:30.824Z,1.90
2023-03-12T08:54:15.769Z,1.93
2023-03-12T08:57:01.166Z,1.50
2023-03-12T08:59:46.312Z,1.50
2023-03-12T09:02:31.812Z,1.77
2023-03-12T09:05:17.401Z,1.80
2023-03-12T09:08:02.629Z,1.80
2023-03-12T09:10:50.100Z,1.50
2023-03-12T09:13:57.863Z,1.83
2023-03-12T09:16:40.631Z,1.83
2023-03-12T09:19:25.952Z,1.70
2023-03-12T09:22:11.009Z,1.60
2023-03-12T09:24:57.360Z,1.63
2023-03-12T09:27:45.227Z,1.70
2023-03-12T09:30:32.053Z,1.60
2023-03-12T09:33:18.114Z,1.47
2023-03-12T09:36:03.474Z,1.43
2023-03-12T09:38:48.715Z,1.57
2023-03-12T09:41:39.950Z,1.80
2023-03-12T09:44:35.497Z,1.70
2023-03-12T09:47:29.457Z,1.70
2023-03-12T09:50:17.721Z,1.47
2023-03-12T09:53:09.189Z,1.63
2023-03-12T09:55:57.215Z,1.43
2023-03-12T09:58:48.105Z,1.60
2023-03-12T10:01:57.380Z,1.40
2023-03-12T10:04:58.881Z,1.97
2023-03-12T10:07:53.316Z,1.60
2023-03-12T10:10:50.872Z,1.70
2023-03-12T10:14:08.711Z,1.60
2023-03-12T10:17:18.557Z,1.40
2023-03-12T10:20:42.254Z,1.30
2023-03-12T10:23:44.661Z,1.33
2023-03-12T10:26:34.836Z,1.30
2023-03-12T10:29:26.640Z,1.40
2023-03-12T10:32:17.539Z,1.50
2023-03-12T10:35:21.723Z,1.20
2023-03-12T10:38:14.918Z,1.57
2023-03-12T10:41:00.661Z,1.27
2023-03-12T10:43:46.049Z,1.60
2023-03-12T10:46:49.537Z,1.40
2023-03-12T10:49:37.203Z,1.37
2023-03-12T10:52:23.408Z,1.27
2023-03-12T10:55:29.684Z,1.40
2023-03-12T10:58:23.828Z,1.20
2023-03-12T11:01:14.909Z,1.60
2023-03-12T11:04:16.558Z,1.60
2023-03-12T11:07:09.248Z,1.80
2023-03-12T11:10:06.929Z,1.30
2023-03-12T11:12:59.285Z,1.10
2023-03-12T11:15:44.334Z,1.27
2023-03-12T11:18:35.291Z,1.40
2023-03-12T11:21:23.563Z,1.40
2023-03-12T11:24:14.057Z,1.60
2023-03-12T11:27:05.912Z,1.47
2023-03-12T11:29:53.153Z,1.33
2023-03-12T11:32:43.872Z,1.27
2023-03-12T11:35:49.004Z,1.47
2023-03-12T11:39:05.355Z,1.40
2023-03-12T11:42:16.182Z,1.10
2023-03-12T11:45:25.566Z,1.30
2023-03-12T11:48:27.452Z,1.30
2023-03-12T11:51:25.404Z,1.40
2023-03-12T11:54:19.480Z,1.20
2023-03-12T11:57:13.879Z,1.40
2023-03-12T12:00:17.352Z,1.57
2023-03-12T12:03:24.409Z,1.40
2023-03-12T12:06:39.063Z,1.40
2023-03-12T12:09:39.333Z,1.30
2023-03-12T12:12:27.804Z,1.37
2023-03-12T12:15:27.867Z,1.60
2023-03-12T12:18:24.562Z,0.97
2023-03-12T12:21:34.683Z,1.17
2023-03-12T12:24:39.352Z,1.30
2023-03-12T12:27:28.536Z,1.20
2023-03-12T12:30:40.738Z,1.07
2023-03-12T12:33:50.506Z,1.20
2023-03-12T12:36:35.880Z,1.20
2023-03-12T12:39:34.393Z,1.40
2023-03-12T12:42:25.981Z,1.60
2023-03-12T12:45:14.962Z,1.17
2023-03-12T12:48:23.736Z,1.50
2023-03-12T12:51:10.745Z,1.10
2023-03-12T12:54:00.238Z,1.37
2023-03-12T12:56:53.791Z,1.23
2023-03-12T12:59:50.523Z,1.60
2023-03-12T13:02:40.592Z,1.43
2023-03-12T13:05:36.390Z,1.20
2023-03-12T13:08:34.556Z,1.10
2023-03-12T13:11:26.428Z,0.90
2023-03-12T13:14:15.180Z,1.10
2023-03-12T13:17:09.302Z,1.40
2023-03-12T13:20:20.887Z,1.20
2023-03-12T13:23:21.170Z,1.30
2023-03-12T13:26:18.681Z,1.10
2023-03-12T13:29:29.912Z,1.27
2023-03-12T13:32:34.124Z,1.77
2023-03-12T13:35:19.550Z,1.23
2023-03-12T13:38:12.221Z,1.00
2023-03-12T13:41:02.033Z,1.00
2023-03-12T13:43:50.093Z,1.20
2023-03-12T13:46:39.133Z,1.50
2023-03-12T13:49:26.134Z,1.13
2023-03-12T13:52:14.277Z,1.20
2023-03-12T13:55:14.623Z,1.10
2023-03-12T13:58:16.849Z,1.20
2023-03-12T14:01:14.225Z,1.20
2023-03-12T14:04:08.589Z,1.20
2023-03-12T14:07:21.461Z,1.20
2023-03-12T14:10:19.708Z,1.20
2023-03-12T14:13:32.991Z,0.93
2023-03-12T14:16:49.464Z,1.10
2023-03-12T14:19:46.224Z,1.33
2023-03-12T14:22:37.877Z,1.20
2023-03-12T14:25:53.306Z,1.10
2023-03-12T14:28:41.944Z,1.10
2023-03-12T14:31:32.799Z,1.00
2023-03-12T14:34:21.764Z,1.10
2023-03-12T14:37:18.200Z,1.07
2023-03-12T14:40:22.173Z,1.00
2023-03-12T14:43:41.807Z,1.20
2023-03-12T14:46:27.169Z,1.40
2023-03-12T14:49:20.375Z,1.23
2023-03-12T14:52:06.032Z,1.30
2023-03-12T14:54:57.251Z,1.00
2023-03-12T14:57:42.284Z,1.30
2023-03-12T15:00:28.829Z,1.10
2023-03-12T15:03:18.350Z,1.23
2023-03-12T15:06:12.687Z,1.10
2023-03-12T15:09:02.490Z,1.00
2023-03-12T15:12:01.325Z,1.10
2023-03-12T15:14:48.818Z,1.17
2023-03-12T15:17:35.020Z,1.10
2023-03-12T15:20:22.105Z,1.00
2023-03-12T15:23:09.710Z,1.30
2023-03-12T15:26:10.348Z,1.13
2023-03-12T15:29:03.394Z,1.00
2023-03-12T15:31:49.734Z,1.20
2023-03-12T15:34:37.868Z,1.10
2023-03-12T15:37:35.123Z,0.97
2023-03-12T15:40:25.437Z,1.10
2023-03-12T15:43:19.144Z,1.23
2023-03-12T15:46:06.707Z,1.20
2023-03-12T15:48:56.558Z,1.37
2023-03-12T15:51:41.843Z,1.10
2023-03-12T15:54:39.057Z,1.30
2023-03-12T15:57:25.919Z,1.27
2023-03-12T16:00:13.730Z,1.33
2023-03-12T16:03:06.104Z,1.37
2023-03-12T16:05:51.488Z,1.57
2023-03-12T16:08:48.025Z,1.50
2023-03-12T16:11:36.664Z,1.27
2023-03-12T16:14:31.055Z,1.10
2023-03-12T16:17:22.964Z,1.20
2023-03-12T16:20:12.558Z,1.20
2023-03-12T16:22:57.575Z,1.20
2023-03-12T16:25:52.786Z,1.63
2023-03-12T16:28:37.759Z,1.10
2023-03-12T16:31:25.327Z,1.43
2023-03-12T16:34:13.700Z,1.60
2023-03-12T16:36:59.261Z,1.30
2023-03-12T16:39:46.340Z,1.70
2023-03-12T16:42:31.776Z,1.57
2023-03-12T16:45:18.306Z,1.80
2023-03-12T16:48:06.371Z,1.60
2023-03-12T16:50:53.659Z,1.53
2023-03-12T16:53:38.945Z,1.80
2023-03-12T16:56:26.606Z,1.70
2023-03-12T16:59:33.155Z,1.97
2023-03-12T17:02:19.006Z,1.23
2023-03-12T17:05:04.447Z,1.47
2023-03-12T17:07:49.896Z,1.50
2023-03-12T17:10:35.095Z,1.20
2023-03-12T17:13:24.210Z,1.30
2023-03-12T17:16:11.567Z,1.53
2023-03-12T17:18:56.975Z,1.37
2023-03-12T17:21:43.370Z,1.40
2023-03-12T17:24:28.205Z,1.43
2023-03-12T17:27:16.354Z,1.80
2023-03-12T17:30:01.636Z,1.57
2023-03-12T17:32:47.049Z,1.40
2023-03-12T17:35:32.911Z,1.33
2023-03-12T17:38:17.821Z,1.60
2023-03-12T17:41:09.400Z,1.30
2023-03-12T17:44:01.691Z,0.90
2023-03-12T17:46:58.521Z,1.20
2023-03-12T17:49:44.915Z,1.17
2023-03-12T17:52:31.889Z,1.10
2023-03-12T17:55:17.115Z,1.10
2023-03-12T17:58:03.323Z,1.23
2023-03-12T18:00:48.959Z,1.07
2023-03-12T18:03:33.918Z,1.20
2023-03-12T18:06:19.994Z,1.20
2023-03-12T18:09:05.550Z,1.20
2023-03-12T18:11:50.450Z,1.47
2023-03-12T18:14:35.638Z,1.17
2023-03-12T18:17:21.032Z,1.10
2023-03-12T18:20:12.462Z,0.80
2023-03-12T18:22:57.703Z,1.00
2023-03-12T18:25:43.063Z,1.20
2023-03-12T18:28:28.013Z,1.33
2023-03-12T18:31:13.308Z,1.27
2023-03-12T18:33:58.704Z,1.00
2023-03-12T18:36:43.897Z,0.80
2023-03-12T18:39:29.086Z,1.13
2023-03-12T18:42:13.961Z,0.80
2023-03-12T18:44:59.195Z,0.80
2023-03-12T18:47:45.290Z,1.50
2023-03-12T18:50:30.488Z,0.90
2023-03-12T18:53:15.482Z,1.00
2023-03-12T18:56:00.610Z,0.87
2023-03-12T18:58:45.813Z,1.13
2023-03-12T19:01:30.985Z,0.80
2023-03-12T19:04:18.234Z,0.90
2023-03-12T19:07:05.051Z,1.10
2023-03-12T19:09:50.222Z,0.77
2023-03-12T19:12:45.339Z,0.90
2023-03-12T19:15:38.140Z,0.77
2023-03-12T19:18:23.327Z,0.80
2023-03-12T19:21:08.622Z,0.90
2023-03-12T19:23:53.729Z,0.80
2023-03-12T19:26:38.961Z,1.07
2023-03-12T19:29:24.249Z,0.90
2023-03-12T19:32:09.684Z,0.80
2023-03-12T19:34:57.962Z,0.70
2023-03-12T19:37:43.099Z,0.97
2023-03-12T19:40:28.336Z,1.03
2023-03-12T19:43:13.671Z,0.70
2023-03-12T19:45:58.773Z,0.90
2023-03-12T19:48:43.911Z,0.83
2023-03-12T19:51:28.759Z,0.70
2023-03-12T19:54:13.683Z,0.63
2023-03-12T19:56:59.096Z,1.10
2023-03-12T19:59:44.479Z,0.80
2023-03-12T20:02:30.077Z,0.80
2023-03-12T20:05:15.529Z,0.67
2023-03-12T20:08:00.722Z,0.77
2023-03-12T20:10:46.557Z,1.00
2023-03-12T20:13:32.062Z,0.80
2023-03-12T20:16:17.136Z,0.73
2023-03-12T20:19:02.256Z,1.00
2023-03-12T20:21:48.167Z,0.80
2023-03-12T20:24:33.400Z,0.90
2023-03-12T20:27:18.366Z,0.90
2023-03-12T20:30:03.736Z,1.10
2023-03-12T20:32:48.742Z,0.90
2023-03-12T20:35:37.476Z,0.80
2023-03-12T20:38:22.834Z,1.07
2023-03-12T20:41:14.704Z,1.17
2023-03-12T20:44:00.271Z,1.10
2023-03-12T20:46:46.394Z,0.90
2023-03-12T20:49:31.627Z,1.10
2023-03-12T20:52:16.617Z,0.77
2023-03-12T20:55:01.527Z,0.90
2023-03-12T20:57:47.002Z,1.00
2023-03-12T21:00:32.432Z,0.80
2023-03-12T21:03:19.224Z,0.90
2023-03-12T21:06:04.956Z,0.77
2023-03-12T21:08:50.350Z,0.80
2023-03-12T21:11:35.750Z,0.80
2023-03-12T21:14:20.884Z,0.70
2023-03-12T21:17:06.625Z,0.77
2023-03-12T21:19:51.747Z,0.70
2023-03-12T21:22:37.024Z,0.90
2023-03-12T21:25:22.066Z,0.90
2023-03-12T21:28:08.813Z,1.00
2023-03-12T21:30:55.146Z,0.80
2023-03-12T21:33:40.428Z,0.90
2023-03-12T21:36:26.136Z,0.93
2023-03-12T21:39:11.143Z,0.70
2023-03-12T21:41:56.114Z,1.00
2023-03-12T21:44:41.565Z,0.73
2023-03-12T21:47:26.744Z,1.17
2023-03-12T21:50:11.948Z,1.03
2023-03-12T21:52:57.113Z,0.83
2023-03-12T21:55:42.466Z,0.80
2023-03-12T21:58:29.162Z,0.73
2023-03-12T22:01:18.930Z,1.00
2023-03-12T22:04:05.475Z,0.90
2023-03-12T22:06:51.435Z,0.97
2023-03-12T22:09:36.468Z,0.93
2023-03-12T22:12:21.804Z,1.00
2023-03-12T22:15:08.551Z,1.00
2023-03-12T22:17:53.965Z,1.37
2023-03-12T22:20:38.934Z,1.70
2023-03-12T22:23:24.996Z,1.87
2023-03-12T22:26:10.166Z,2.27
2023-03-12T22:28:57.508Z,2.40
2023-03-12T22:31:42.764Z,2.80
2023-03-12T22:34:29.658Z,2.87
2023-03-12T22:37:14.994Z,3.60
2023-03-12T22:40:05.044Z,3.33
2023-03-12T22:42:51.119Z,4.00
2023-03-12T22:45:36.097Z,4.07
2023-03-12T22:48:21.516Z,4.63
2023-03-12T22:51:06.913Z,4.47
2023-03-12T22:53:52.386Z,4.60
2023-03-12T22:56:37.404Z,4.80
2023-03-12T22:59:22.520Z,4.63
2023-03-12T23:02:07.662Z,5.37
2023-03-12T23:04:52.800Z,5.53
2023-03-12T23:07:38.178Z,5.30
2023-03-12T23:10:23.493Z,5.90
2023-03-12T23:13:09.097Z,5.67
2023-03-12T23:15:54.422Z,5.43
2023-03-12T23:18:39.869Z,5.93
2023-03-12T23:21:25.840Z,6.27
2023-03-12T23:24:11.131Z,6.20
2023-03-12T23:26:57.148Z,6.43
2023-03-12T23:29:42.143Z,6.40
2023-03-12T23:32:27.199Z,6.40
2023-03-12T23:35:12.152Z,7.77
2023-03-12T23:37:57.658Z,6.70
2023-03-12T23:40:42.937Z,6.37
2023-03-12T23:43:28.308Z,7.47
2023-03-12T23:46:14.635Z,6.87
2023-03-12T23:48:59.832Z,7.27
2023-03-12T23:51:45.325Z,6.70
2023-03-12T23:54:30.428Z,7.00
2023-03-12T23:57:15.324Z,7.87
